Time;durP1;ratioP1;P1;durP2;ratioP2;P2;SDS_P1;SDS_P2;PMS_P1;PMS_P2;Temp;Humidity;BMP_temperature;BMP_pressure;BME280_temperature;BME280_humidity;BME280_pressure;Samples;Min_cycle;Max_cycle;Signal;HPM_P1;HPM_P2
2023/10/26 00:00:31;;;;;;;54.22;23.13;;;;;;;22.49;58.76;99661.13;5113302;28;20045;-78
2023/10/26 00:02:57;;;;;;;47.65;19.83;;;;;;;22.39;59.01;99660.78;5112968;28;20031;-77
2023/10/26 00:05:23;;;;;;;51.40;18.45;;;;;;;22.41;57.71;99631.28;5117508;28;20059;-79
2023/10/26 00:07:48;;;;;;;46.92;17.25;;;;;;;22.52;57.25;99636.00;5116725;28;20032;-78
2023/10/26 00:10:14;;;;;;;56.53;16.33;;;;;;;22.51;56.76;99637.06;5113041;28;20058;-77
2023/10/26 00:12:39;;;;;;;46.58;15.70;;;;;;;22.53;56.27;99621.25;5112546;28;20077;-77
2023/10/26 00:15:06;;;;;;;40.38;13.73;;;;;;;22.45;56.16;99609.72;5093008;28;20047;-77
2023/10/26 00:17:31;;;;;;;48.88;14.13;;;;;;;22.43;55.88;99611.84;5112519;28;20100;-78
2023/10/26 00:19:57;;;;;;;47.25;12.77;;;;;;;22.39;55.65;99597.75;5111769;28;20035;-77
2023/10/26 00:22:22;;;;;;;43.95;13.20;;;;;;;22.41;55.19;99597.56;5112427;28;20020;-77
2023/10/26 00:24:49;;;;;;;35.05;12.90;;;;;;;22.18;55.20;99577.09;5112450;28;20093;-77
2023/10/26 00:27:14;;;;;;;33.58;13.88;;;;;;;22.23;55.18;99584.66;5112521;28;20027;-78
2023/10/26 00:29:40;;;;;;;31.00;12.43;;;;;;;22.29;55.07;99591.13;5112613;28;20023;-78
2023/10/26 00:32:06;;;;;;;25.95;11.35;;;;;;;22.30;54.63;99595.53;5112115;28;20096;-78
2023/10/26 00:34:35;;;;;;;35.17;11.90;;;;;;;22.41;54.44;99608.50;5112463;28;20081;-77
2023/10/26 00:37:01;;;;;;;38.78;12.63;;;;;;;22.43;54.37;99622.81;5112287;28;20027;-79
2023/10/26 00:39:27;;;;;;;37.40;11.10;;;;;;;22.31;54.35;99617.25;5112302;27;20088;-78
2023/10/26 00:41:54;;;;;;;30.60;10.13;;;;;;;22.45;54.67;99643.44;5111974;27;20083;-78
2023/10/26 00:44:23;;;;;;;32.65;11.30;;;;;;;22.43;54.69;99648.31;5112230;28;20035;-79
2023/10/26 00:46:53;;;;;;;37.72;11.45;;;;;;;22.38;54.97;99650.06;5111960;28;20141;-78
2023/10/26 00:49:19;;;;;;;34.47;13.48;;;;;;;22.32;55.39;99648.22;5111928;28;20031;-78
2023/10/26 00:51:49;;;;;;;46.20;14.77;;;;;;;22.21;55.95;99647.03;5112044;27;20039;-78
2023/10/26 00:54:18;;;;;;;34.55;14.77;;;;;;;22.24;56.27;99641.94;5111291;28;20118;-77
2023/10/26 00:56:44;;;;;;;55.10;17.48;;;;;;;22.24;56.77;99655.66;5113673;28;20100;-79
2023/10/26 00:59:10;;;;;;;48.50;17.33;;;;;;;22.20;56.89;99656.31;5126440;28;20023;-78
2023/10/26 01:01:36;;;;;;;42.53;17.15;;;;;;;22.23;57.23;99647.66;5114150;28;20512;-76
2023/10/26 01:04:06;;;;;;;50.80;16.38;;;;;;;22.27;57.48;99634.34;5111434;28;20074;-77
2023/10/26 01:06:32;;;;;;;38.47;15.43;;;;;;;22.14;57.52;99624.34;5109413;28;20042;-78
2023/10/26 01:08:58;;;;;;;40.00;14.55;;;;;;;22.08;58.02;99639.75;5111973;28;20028;-77
2023/10/26 01:11:23;;;;;;;27.98;13.40;;;;;;;22.02;57.95;99637.06;5091871;28;20059;-77
2023/10/26 01:13:49;;;;;;;39.20;13.50;;;;;;;22.02;57.81;99648.03;5111297;28;20467;-77
2023/10/26 01:16:15;;;;;;;40.35;12.75;;;;;;;21.95;57.91;99652.72;5111305;28;20047;-78
2023/10/26 01:18:40;;;;;;;36.00;12.70;;;;;;;21.89;58.30;99678.25;5111481;28;20042;-79
2023/10/26 01:21:06;;;;;;;40.92;12.93;;;;;;;21.74;58.35;99672.22;5111514;27;20056;-77
2023/10/26 01:23:31;;;;;;;45.55;14.40;;;;;;;21.75;58.43;99668.41;5111110;28;20135;-77
2023/10/26 01:25:58;;;;;;;31.45;12.48;;;;;;;21.78;58.67;99707.13;5110339;28;20023;-78
2023/10/26 01:28:25;;;;;;;41.60;14.85;;;;;;;21.74;59.04;99694.13;5107845;28;20032;-77
2023/10/26 01:30:52;;;;;;;44.33;14.30;;;;;;;21.66;58.84;99698.78;5110384;28;20084;-78
2023/10/26 01:33:17;;;;;;;51.13;15.23;;;;;;;21.67;59.38;99713.31;5110392;28;20039;-77
2023/10/26 01:35:45;;;;;;;65.85;16.15;;;;;;;21.50;60.04;99704.75;5110348;28;20027;-77
2023/10/26 01:38:11;;;;;;;37.22;14.52;;;;;;;21.48;60.08;99728.75;5107962;28;20065;-77
2023/10/26 01:40:37;;;;;;;51.67;17.00;;;;;;;21.39;60.92;99721.00;5110379;28;20031;-77
2023/10/26 01:43:02;;;;;;;50.45;19.23;;;;;;;21.35;61.04;99723.34;5110214;28;20435;-77
2023/10/26 01:45:28;;;;;;;54.78;18.63;;;;;;;21.24;61.19;99699.41;5110725;28;20103;-78
2023/10/26 01:47:54;;;;;;;40.20;17.25;;;;;;;21.30;61.66;99716.84;5110378;28;20439;-77
2023/10/26 01:50:20;;;;;;;60.42;19.08;;;;;;;21.25;61.71;99702.97;5114530;28;20039;-77
2023/10/26 01:52:45;;;;;;;59.42;19.48;;;;;;;21.21;61.28;99680.69;5115532;28;20031;-80
2023/10/26 01:55:11;;;;;;;49.25;19.13;;;;;;;21.20;61.60;99686.38;5110045;28;20023;-77
2023/10/26 01:57:36;;;;;;;69.13;19.58;;;;;;;21.12;61.50;99680.09;5109998;28;20531;-77
2023/10/26 02:00:03;;;;;;;44.35;18.25;;;;;;;21.07;61.47;99681.75;5110079;28;20035;-77
2023/10/26 02:02:28;;;;;;;58.47;18.75;;;;;;;21.11;61.38;99704.91;5110115;28;20065;-78
2023/10/26 02:04:54;;;;;;;46.67;18.65;;;;;;;21.14;61.40;99709.94;5110756;28;20126;-78
2023/10/26 02:07:20;;;;;;;57.90;17.95;;;;;;;21.00;61.29;99691.88;5114296;28;20027;-78
2023/10/26 02:09:46;;;;;;;41.42;16.92;;;;;;;21.05;61.76;99711.19;5114323;28;20028;-78
2023/10/26 02:12:11;;;;;;;60.80;18.92;;;;;;;20.96;61.96;99718.81;5113932;28;20053;-77
2023/10/26 02:14:37;;;;;;;71.00;19.17;;;;;;;20.98;61.80;99726.78;5114497;28;20054;-77
2023/10/26 02:17:04;;;;;;;50.63;18.02;;;;;;;20.89;61.73;99711.66;5114532;28;20047;-77
2023/10/26 02:19:29;;;;;;;66.82;18.33;;;;;;;20.73;62.33;99717.59;5114075;28;20023;-77
2023/10/26 02:21:55;;;;;;;51.10;18.08;;;;;;;20.63;62.59;99702.47;5114110;28;20030;-78
2023/10/26 02:24:20;;;;;;;69.00;17.88;;;;;;;20.59;62.79;99706.66;5113799;28;20456;-77
2023/10/26 02:26:46;;;;;;;60.45;17.95;;;;;;;20.37;63.30;99702.47;5113702;28;20026;-77
2023/10/26 02:29:11;;;;;;;64.40;19.65;;;;;;;20.42;63.72;99713.63;5114005;28;20047;-78
2023/10/26 02:31:37;;;;;;;48.83;18.40;;;;;;;20.36;63.81;99717.19;5113833;28;20024;-77
2023/10/26 02:34:02;;;;;;;49.50;18.92;;;;;;;20.23;64.15;99710.84;5113865;28;20084;-78
2023/10/26 02:36:28;;;;;;;64.90;19.75;;;;;;;20.25;64.07;99727.84;5114029;28;20465;-78
2023/10/26 02:38:53;;;;;;;98.57;24.02;;;;;;;20.24;63.90;99718.84;5113889;28;20027;-78
2023/10/26 02:41:18;;;;;;;71.05;22.30;;;;;;;20.01;64.08;99702.84;5115576;28;20020;-77
2023/10/26 02:43:44;;;;;;;65.63;21.45;;;;;;;20.08;64.27;99720.09;5118430;28;20019;-77
2023/10/26 02:46:10;;;;;;;69.95;20.02;;;;;;;20.05;64.28;99719.66;5116679;28;20471;-78
2023/10/26 02:48:35;;;;;;;70.60;21.58;;;;;;;19.97;64.63;99717.09;5113455;28;20163;-77
2023/10/26 02:51:01;;;;;;;73.47;22.17;;;;;;;19.91;64.35;99713.31;5113511;28;20028;-76
2023/10/26 02:53:26;;;;;;;60.50;19.85;;;;;;;19.93;64.80;99726.78;5113549;28;20612;-77
2023/10/26 02:55:52;;;;;;;64.40;19.70;;;;;;;19.97;64.74;99719.84;5113449;28;20045;-76
2023/10/26 02:58:18;;;;;;;58.35;18.92;;;;;;;20.04;64.43;99712.50;5113340;28;20027;-79
2023/10/26 03:00:43;;;;;;;58.88;19.55;;;;;;;20.09;64.33;99720.91;5113459;28;20031;-78
2023/10/26 03:03:09;;;;;;;75.63;20.27;;;;;;;20.06;64.49;99707.66;5113261;28;20036;-77
2023/10/26 03:05:35;;;;;;;79.25;21.83;;;;;;;20.01;64.38;99702.84;5112820;28;20082;-77
2023/10/26 03:08:01;;;;;;;57.97;20.83;;;;;;;20.14;64.45;99723.88;5113089;28;20028;-77
2023/10/26 03:10:28;;;;;;;56.95;21.63;;;;;;;20.09;64.89;99709.97;5093599;28;20062;-78
2023/10/26 03:12:53;;;;;;;55.15;21.23;;;;;;;20.08;65.25;99713.78;5113209;28;20451;-79
2023/10/26 03:15:19;;;;;;;59.25;21.67;;;;;;;20.12;65.67;99719.66;5113203;28;20031;-76
2023/10/26 03:17:44;;;;;;;58.92;23.27;;;;;;;19.92;66.05;99692.34;5093317;28;20070;-77
2023/10/26 03:20:11;;;;;;;88.07;24.83;;;;;;;20.03;66.38;99706.19;5113008;28;20453;-77
2023/10/26 03:22:36;;;;;;;57.03;21.73;;;;;;;20.06;66.60;99710.41;5112808;28;20042;-78
2023/10/26 03:25:02;;;;;;;66.65;22.02;;;;;;;20.04;66.60;99696.97;5112682;28;20398;-77
2023/10/26 03:27:28;;;;;;;71.00;23.90;;;;;;;20.09;66.82;99699.06;5112738;28;20027;-77
2023/10/26 03:29:54;;;;;;;64.43;21.77;;;;;;;20.02;67.18;99692.78;5113285;28;20035;-78
2023/10/26 03:32:20;;;;;;;61.80;21.67;;;;;;;20.00;67.66;99694.84;5113505;28;20027;-77
2023/10/26 03:34:48;;;;;;;68.30;25.38;;;;;;;20.02;67.63;99698.22;5117903;28;20434;-79
2023/10/26 03:37:14;;;;;;;61.55;25.42;;;;;;;20.14;67.74;99712.94;5117336;28;20028;-78
2023/10/26 03:39:39;;;;;;;73.38;25.05;;;;;;;20.18;67.90;99707.91;5113706;28;20035;-78
2023/10/26 03:42:05;;;;;;;66.25;25.73;;;;;;;20.22;67.94;99699.06;5113116;28;20435;-77
2023/10/26 03:44:30;;;;;;;80.50;27.25;;;;;;;20.20;67.84;99690.25;5112624;28;20398;-78
2023/10/26 03:46:56;;;;;;;75.32;26.65;;;;;;;20.18;68.38;99707.91;5112855;28;20030;-78
2023/10/26 03:49:21;;;;;;;104.88;27.42;;;;;;;20.07;68.63;99691.09;5112275;28;20506;-78
2023/10/26 03:51:47;;;;;;;90.45;29.23;;;;;;;20.03;68.78;99686.25;5112374;28;20102;-78
2023/10/26 03:54:13;;;;;;;94.63;28.42;;;;;;;19.86;68.97;99665.88;5112160;28;20694;-78
2023/10/26 03:56:38;;;;;;;69.60;26.27;;;;;;;20.08;69.28;99705.59;5112143;28;20020;-77
2023/10/26 03:59:04;;;;;;;155.88;35.42;;;;;;;20.04;69.21;99696.13;5112384;28;20032;-79
2023/10/26 04:01:29;;;;;;;107.95;30.38;;;;;;;20.01;69.20;99691.09;5111987;28;20414;-78
2023/10/26 04:03:54;;;;;;;72.82;28.00;;;;;;;20.04;69.57;99707.03;5112051;28;20066;-77
2023/10/26 04:06:20;;;;;;;68.57;25.63;;;;;;;20.03;69.22;99708.09;5111951;28;20031;-76
2023/10/26 04:08:45;;;;;;;98.13;27.23;;;;;;;19.99;69.36;99715.03;5111983;28;20454;-78
2023/10/26 04:11:17;;;;;;;83.13;28.60;;;;;;;19.94;69.27;99695.69;5112241;28;20047;-78
2023/10/26 04:13:44;;;;;;;81.03;29.75;;;;;;;20.06;69.08;99711.25;5112005;28;20031;-77
2023/10/26 04:16:09;;;;;;;75.05;26.30;;;;;;;20.12;68.23;99698.63;5111652;28;20506;-77
2023/10/26 04:18:35;;;;;;;68.55;24.30;;;;;;;20.17;67.84;99701.59;5110622;28;20043;-78
2023/10/26 04:21:01;;;;;;;69.30;24.73;;;;;;;20.18;67.93;99703.28;5111897;28;20032;-79
2023/10/26 04:23:27;;;;;;;85.68;26.73;;;;;;;20.16;68.02;99707.25;5111921;28;20028;-79
2023/10/26 04:25:53;;;;;;;107.63;30.13;;;;;;;20.03;67.82;99691.69;5112604;28;20024;-79
2023/10/26 04:28:19;;;;;;;99.18;25.23;;;;;;;19.98;68.58;99688.78;5122452;28;20024;-79
2023/10/26 04:30:48;;;;;;;56.92;22.00;;;;;;;20.16;67.77;99705.38;5120058;28;20023;-77
2023/10/26 04:33:14;;;;;;;74.50;24.05;;;;;;;20.20;67.45;99711.25;5111157;28;20418;-78
2023/10/26 04:35:44;;;;;;;69.25;23.85;;;;;;;20.23;67.38;99703.50;5111532;28;20030;-77
2023/10/26 04:38:09;;;;;;;101.90;27.67;;;;;;;20.19;67.54;99698.66;5092004;28;20110;-79
2023/10/26 04:40:42;;;;;;;57.80;21.42;;;;;;;20.22;67.64;99703.69;5111559;27;20040;-79
2023/10/26 04:43:11;;;;;;;120.97;27.08;;;;;;;19.97;67.58;99667.97;5111217;28;20637;-78
2023/10/26 04:45:37;;;;;;;109.70;29.45;;;;;;;20.07;68.01;99701.16;5111851;28;20023;-79
2023/10/26 04:48:03;;;;;;;104.82;30.65;;;;;;;20.19;68.28;99712.31;5111869;28;20506;-81
2023/10/26 04:50:30;;;;;;;92.82;25.63;;;;;;;20.27;68.35;99712.16;5113859;28;20032;-78
2023/10/26 04:52:55;;;;;;;99.00;27.80;;;;;;;20.20;68.61;99720.31;5112352;28;20044;-79
2023/10/26 04:55:21;;;;;;;73.60;25.25;;;;;;;20.21;68.91;99716.53;5111918;28;20160;-79
2023/10/26 04:57:46;;;;;;;68.63;24.98;;;;;;;20.24;68.62;99710.66;5111670;28;20384;-78
2023/10/26 05:00:12;;;;;;;74.07;24.95;;;;;;;20.25;68.88;99709.56;5111451;28;20028;-78
2023/10/26 05:02:40;;;;;;;61.72;24.35;;;;;;;20.43;69.16;99723.47;5111361;28;20493;-79
2023/10/26 05:05:07;;;;;;;64.20;25.65;;;;;;;20.43;68.97;99719.91;5111038;28;20058;-78
2023/10/26 05:07:32;;;;;;;62.08;25.63;;;;;;;20.49;69.08;99733.56;5111339;28;20441;-79
2023/10/26 05:09:59;;;;;;;120.65;27.60;;;;;;;20.52;69.19;99737.75;5110885;28;20023;-77
2023/10/26 05:12:24;;;;;;;76.85;24.77;;;;;;;20.52;69.08;99751.41;5111250;28;20055;-79
2023/10/26 05:14:50;;;;;;;67.82;26.08;;;;;;;20.55;68.83;99754.56;5111684;28;20066;-79
2023/10/26 05:17:15;;;;;;;72.43;24.02;;;;;;;20.54;68.77;99750.19;5110964;28;20035;-79
2023/10/26 05:19:41;;;;;;;74.28;25.05;;;;;;;20.59;69.02;99769.50;5124673;28;20044;-84
2023/10/26 05:22:06;;;;;;;64.35;25.45;;;;;;;20.41;69.21;99743.88;5135983;28;20016;-86
2023/10/26 05:24:32;;;;;;;57.85;24.60;;;;;;;20.60;69.36;99781.28;5117394;28;20032;-83
2023/10/26 05:26:58;;;;;;;69.72;25.10;;;;;;;20.49;69.27;99755.41;5110818;28;20099;-81
2023/10/26 05:29:24;;;;;;;79.15;27.42;;;;;;;20.47;69.59;99746.59;5110693;28;20548;-85
2023/10/26 05:31:49;;;;;;;64.25;26.25;;;;;;;20.67;69.64;99773.09;5111344;28;20063;-83
2023/10/26 05:34:15;;;;;;;79.22;27.48;;;;;;;20.35;69.45;99704.59;5111443;28;20054;-84
2023/10/26 05:36:40;;;;;;;81.05;27.50;;;;;;;20.59;69.39;99747.66;5110665;28;20581;-82
2023/10/26 05:39:06;;;;;;;80.78;26.42;;;;;;;20.60;69.63;99751.22;5110667;28;20057;-83
2023/10/26 05:41:33;;;;;;;56.33;24.92;;;;;;;20.57;69.61;99746.19;5109251;28;20609;-83
2023/10/26 05:43:58;;;;;;;84.53;27.30;;;;;;;20.74;69.66;99780.22;5110228;28;20384;-83
2023/10/26 05:46:24;;;;;;;78.50;26.60;;;;;;;20.72;69.37;99765.94;5110244;28;20084;-83
2023/10/26 05:48:50;;;;;;;67.13;23.95;;;;;;;20.74;69.21;99757.50;5110518;28;20061;-83
2023/10/26 05:51:15;;;;;;;68.50;23.50;;;;;;;20.76;69.04;99755.44;5110575;28;20015;-81
2023/10/26 05:53:41;;;;;;;65.20;23.38;;;;;;;20.94;69.02;99769.28;5110552;28;20066;-83
2023/10/26 05:56:07;;;;;;;68.20;24.52;;;;;;;20.94;69.15;99775.59;5110843;28;20403;-83
2023/10/26 05:58:32;;;;;;;63.17;22.95;;;;;;;20.93;69.52;99764.84;5110957;28;20027;-82
2023/10/26 06:00:58;;;;;;;53.22;21.80;;;;;;;20.98;69.39;99767.78;5108872;28;20023;-82
2023/10/26 06:03:24;;;;;;;69.97;23.42;;;;;;;20.93;69.39;99751.19;5111401;28;22036;-83
2023/10/26 06:05:49;;;;;;;53.78;21.88;;;;;;;20.91;69.31;99742.38;5110913;28;20479;-82
2023/10/26 06:08:15;;;;;;;96.28;25.85;;;;;;;21.03;69.37;99762.53;5114936;28;20031;-81
2023/10/26 06:10:40;;;;;;;64.97;25.55;;;;;;;21.07;69.46;99775.56;5114634;28;20368;-84
2023/10/26 06:13:09;;;;;;;70.18;23.08;;;;;;;21.13;69.01;99780.19;5134444;28;20023;-83
2023/10/26 06:15:35;;;;;;;64.88;25.10;;;;;;;21.10;69.09;99768.84;5130262;28;20032;-82
2023/10/26 06:18:00;;;;;;;72.18;24.15;;;;;;;21.23;68.95;99774.28;5110566;28;20047;-83
2023/10/26 06:20:29;;;;;;;55.75;24.50;;;;;;;21.32;68.55;99778.47;5110703;28;20117;-82
2023/10/26 06:22:55;;;;;;;56.60;22.38;;;;;;;21.24;68.38;99748.63;5110044;28;20027;-82
2023/10/26 06:25:20;;;;;;;59.33;22.67;;;;;;;21.35;68.44;99769.84;5110008;28;20038;-82
2023/10/26 06:27:49;;;;;;;69.38;24.83;;;;;;;21.28;68.47;99749.91;5109946;28;20034;-82
2023/10/26 06:30:15;;;;;;;66.53;22.80;;;;;;;21.46;68.37;99763.72;5108609;28;20616;-82
2023/10/26 06:32:41;;;;;;;54.15;23.48;;;;;;;21.34;68.53;99743.56;5109811;28;20467;-82
2023/10/26 06:35:07;;;;;;;56.10;21.65;;;;;;;21.48;68.39;99778.00;5110148;28;20043;-82
2023/10/26 06:37:33;;;;;;;63.95;22.85;;;;;;;21.52;68.00;99775.69;5110023;28;20020;-82
2023/10/26 06:39:58;;;;;;;55.78;22.50;;;;;;;21.41;67.79;99744.34;5110095;28;20111;-82
2023/10/26 06:42:24;;;;;;;74.13;23.77;;;;;;;21.66;67.99;99767.19;5110432;28;20023;-82
2023/10/26 06:44:49;;;;;;;55.22;23.80;;;;;;;21.63;67.59;99742.16;5109696;28;20038;-82
2023/10/26 06:47:15;;;;;;;56.00;21.77;;;;;;;21.57;67.46;99727.47;5108378;28;20541;-82
2023/10/26 06:49:43;;;;;;;71.90;23.35;;;;;;;21.76;66.82;99761.25;5110119;28;20024;-83
2023/10/26 06:52:09;;;;;;;61.90;23.48;;;;;;;21.70;66.92;99757.50;5112701;28;20015;-81
2023/10/26 06:54:35;;;;;;;58.08;21.88;;;;;;;21.88;67.19;99764.16;5113440;28;20035;-82
2023/10/26 06:57:00;;;;;;;71.90;25.50;;;;;;;21.93;66.95;99762.47;5113739;28;20499;-82
2023/10/26 06:59:25;;;;;;;62.30;22.23;;;;;;;21.84;66.43;99738.25;5114983;28;20020;-81
2023/10/26 07:01:51;;;;;;;57.03;20.98;;;;;;;21.97;66.20;99762.88;5114344;28;20024;-82
2023/10/26 07:04:17;;;;;;;57.20;24.40;;;;;;;21.94;66.49;99755.94;5129706;28;20061;-82
2023/10/26 07:06:42;;;;;;;60.85;23.27;;;;;;;22.02;66.61;99765.78;5137528;28;20020;-82
2023/10/26 07:09:08;;;;;;;74.18;23.23;;;;;;;22.08;66.22;99776.69;5120264;28;20034;-84
2023/10/26 07:11:33;;;;;;;68.20;20.90;;;;;;;22.08;66.09;99765.75;5112037;28;20023;-83
2023/10/26 07:14:00;;;;;;;65.18;23.48;;;;;;;22.23;65.99;99785.44;5113407;28;20032;-82
2023/10/26 07:16:25;;;;;;;65.38;21.77;;;;;;;22.33;65.25;99787.72;5111706;28;20027;-82
2023/10/26 07:18:52;;;;;;;61.90;21.52;;;;;;;22.23;65.27;99777.22;5113232;28;20038;-82
2023/10/26 07:21:18;;;;;;;56.72;21.23;;;;;;;22.43;64.72;99799.03;5113111;28;20020;-81
2023/10/26 07:23:43;;;;;;;68.47;20.65;;;;;;;22.58;63.95;99791.31;5113237;28;20468;-83
2023/10/26 07:26:15;;;;;;;54.50;20.00;;;;;;;22.73;63.37;99789.13;5118549;28;20035;-83
2023/10/26 07:28:40;;;;;;;54.33;19.73;;;;;;;22.64;63.65;99763.03;5113338;27;20096;-82
2023/10/26 07:31:05;;;;;;;60.22;21.00;;;;;;;22.89;63.11;99781.38;5112841;28;20460;-82
2023/10/26 07:33:31;;;;;;;55.55;20.80;;;;;;;22.86;62.69;99759.91;5112842;28;20031;-82
2023/10/26 07:35:57;;;;;;;60.47;20.55;;;;;;;22.90;62.34;99736.47;5112601;28;20066;-84
2023/10/26 07:38:26;;;;;;;45.95;21.02;;;;;;;23.01;61.83;99752.16;5112000;28;20103;-82
2023/10/26 07:40:54;;;;;;;66.90;20.08;;;;;;;23.22;61.34;99766.28;5111664;27;20074;-82
2023/10/26 07:43:20;;;;;;;75.97;23.35;;;;;;;23.32;61.48;99771.25;5111741;28;20139;-84
2023/10/26 07:45:51;;;;;;;56.03;21.17;;;;;;;23.33;61.35;99773.75;5111893;28;20030;-83
2023/10/26 07:48:17;;;;;;;91.55;38.67;;;;;;;23.42;60.76;99759.78;5112476;28;20027;-82
2023/10/26 07:50:43;;;;;;;60.00;19.60;;;;;;;23.52;60.36;99749.91;5113808;28;20096;-82
2023/10/26 07:53:08;;;;;;;56.58;19.27;;;;;;;23.60;60.32;99762.50;5113850;28;20451;-82
2023/10/26 07:55:34;;;;;;;60.92;18.10;;;;;;;23.61;59.38;99754.03;5116269;28;20036;-82
2023/10/26 07:58:00;;;;;;;48.58;18.05;;;;;;;23.75;59.26;99769.28;5135964;28;20024;-82
2023/10/26 08:00:25;;;;;;;57.30;18.77;;;;;;;23.89;58.86;99780.06;5130238;28;20375;-83
2023/10/26 08:02:51;;;;;;;55.13;19.40;;;;;;;24.07;59.12;99763.53;5111680;28;20103;-83
2023/10/26 08:05:17;;;;;;;68.55;18.55;;;;;;;24.18;58.80;99751.81;5110731;28;20082;-82
2023/10/26 08:07:44;;;;;;;74.32;18.48;;;;;;;24.14;57.42;99745.94;5112013;28;20051;-83
2023/10/26 08:10:10;;;;;;;45.88;17.52;;;;;;;24.41;57.76;99748.28;5111735;28;20123;-83
2023/10/26 08:12:35;;;;;;;60.83;18.63;;;;;;;24.46;57.04;99730.03;5111764;28;20103;-84
2023/10/26 08:15:02;;;;;;;54.33;18.70;;;;;;;24.52;56.08;99741.97;5112441;27;20039;-83
2023/10/26 08:17:28;;;;;;;63.92;18.65;;;;;;;24.60;55.71;99747.97;5111916;28;20034;-83
2023/10/26 08:19:55;;;;;;;62.92;16.40;;;;;;;24.71;55.53;99754.53;5111963;28;20034;-82
2023/10/26 08:22:23;;;;;;;68.35;20.02;;;;;;;24.75;55.70;99753.00;5111711;28;20027;-84
2023/10/26 08:24:48;;;;;;;68.68;17.40;;;;;;;24.79;55.48;99757.78;5111707;28;20115;-83
2023/10/26 08:27:15;;;;;;;65.63;17.95;;;;;;;24.82;55.03;99746.34;5111505;28;20043;-82
2023/10/26 08:29:41;;;;;;;56.28;17.02;;;;;;;24.94;55.06;99737.25;5111881;28;20081;-84
2023/10/26 08:32:07;;;;;;;71.30;15.90;;;;;;;25.20;54.28;99764.25;5111547;28;20077;-82
2023/10/26 08:34:32;;;;;;;52.55;15.75;;;;;;;25.26;54.22;99752.28;5111594;28;20032;-83
2023/10/26 08:37:01;;;;;;;78.95;17.67;;;;;;;25.51;53.09;99744.63;5111370;28;20031;-82
2023/10/26 08:39:26;;;;;;;54.28;16.48;;;;;;;25.56;52.90;99730.97;5111828;28;20094;-82
2023/10/26 08:41:53;;;;;;;57.55;15.07;;;;;;;25.97;51.83;99727.94;5112933;28;20111;-83
2023/10/26 08:44:19;;;;;;;62.95;16.05;;;;;;;26.11;50.91;99725.72;5116511;28;20051;-81
2023/10/26 08:46:48;;;;;;;51.72;14.50;;;;;;;25.96;50.20;99711.66;5112572;28;20047;-84
2023/10/26 08:49:15;;;;;;;55.22;15.60;;;;;;;26.03;50.17;99730.78;5127737;28;20017;-84
2023/10/26 08:51:41;;;;;;;48.90;13.85;;;;;;;26.06;50.06;99735.78;5111305;28;20040;-83
2023/10/26 08:54:06;;;;;;;57.42;15.85;;;;;;;25.91;50.18;99737.19;5094421;28;20035;-83
2023/10/26 08:56:32;;;;;;;40.42;14.25;;;;;;;25.82;50.10;99741.41;5088374;28;20515;-83
2023/10/26 08:58:59;;;;;;;40.83;14.85;;;;;;;25.79;49.74;99747.41;5088142;28;20024;-84
2023/10/26 09:01:27;;;;;;;48.22;14.95;;;;;;;25.75;50.25;99740.72;5071321;28;20032;-83
2023/10/26 09:03:52;;;;;;;64.05;18.73;;;;;;;25.89;50.25;99749.53;5088081;28;20028;-82
2023/10/26 09:06:18;;;;;;;71.78;27.65;;;;;;;25.86;52.95;99759.13;5070778;28;20400;-82
2023/10/26 09:08:43;;;;;;;67.15;26.60;;;;;;;25.69;54.31;99757.38;5088079;28;20024;-84
2023/10/26 09:11:22;;;;;;;58.75;25.98;;;;;;;25.43;55.74;99750.47;5087749;28;20043;-82
2023/10/26 09:13:50;;;;;;;69.00;24.60;;;;;;;25.13;57.39;99752.56;5087415;28;20077;-83
2023/10/26 09:16:16;;;;;;;88.18;27.75;;;;;;;24.85;57.96;99745.88;5037098;28;20052;-82
2023/10/26 09:18:50;;;;;;;73.47;27.40;;;;;;;24.88;58.51;99750.91;5088035;28;20534;-82
2023/10/26 09:21:16;;;;;;;68.80;25.10;;;;;;;24.71;59.36;99738.03;5087651;28;20039;-84
2023/10/26 09:23:42;;;;;;;60.85;24.42;;;;;;;24.60;59.70;99742.47;5108908;28;20097;-82
2023/10/26 09:26:09;;;;;;;56.55;21.70;;;;;;;24.24;60.63;99718.75;5110916;28;20150;-83
2023/10/26 09:28:51;;;;;;;67.00;23.17;;;;;;;24.42;60.85;99733.47;5110764;28;20024;-83
2023/10/26 09:31:17;;;;;;;69.13;24.85;;;;;;;24.21;60.66;99721.13;5110371;28;20028;-83
2023/10/26 09:33:44;;;;;;;65.22;24.20;;;;;;;24.21;60.99;99710.97;5110813;28;20022;-83
2023/10/26 09:36:14;;;;;;;62.47;22.00;;;;;;;24.43;60.34;99732.41;5111806;28;20035;-83
2023/10/26 09:38:41;;;;;;;79.18;22.02;;;;;;;24.51;60.39;99724.63;5112346;28;20046;-82
2023/10/26 09:41:11;;;;;;;59.65;20.85;;;;;;;24.53;59.93;99714.22;5120358;28;20027;-83
2023/10/26 09:43:43;;;;;;;76.45;24.55;;;;;;;24.50;59.39;99670.72;5133444;28;20062;-82
2023/10/26 09:46:10;;;;;;;65.43;20.67;;;;;;;24.73;58.59;99703.75;5119843;28;20020;-81
2023/10/26 09:48:36;;;;;;;65.38;21.02;;;;;;;24.80;58.31;99703.59;5110606;28;20330;-83
2023/10/26 09:51:03;;;;;;;80.07;20.38;;;;;;;24.75;58.06;99707.06;5109099;28;20023;-82
2023/10/26 09:53:38;;;;;;;53.60;19.90;;;;;;;24.59;58.10;99701.44;5110349;28;20031;-83
2023/10/26 09:56:04;;;;;;;68.75;21.77;;;;;;;24.60;58.05;99698.47;5109976;28;20553;-82
2023/10/26 09:58:40;;;;;;;66.78;21.40;;;;;;;24.73;58.14;99687.25;5110152;28;20872;-82
2023/10/26 10:01:39;;;;;;;59.28;21.35;;;;;;;24.74;58.14;99693.56;5112876;28;20076;-83
2023/10/26 10:04:09;;;;;;;67.35;20.83;;;;;;;24.81;57.36;99700.66;5109886;28;20104;-83
2023/10/26 10:06:58;;;;;;;57.28;19.90;;;;;;;24.98;57.54;99694.44;5110168;28;20038;-83
2023/10/26 10:09:27;;;;;;;69.80;20.75;;;;;;;25.14;57.17;99690.91;5109925;28;20487;-82
2023/10/26 10:12:14;;;;;;;52.17;19.20;;;;;;;24.97;55.97;99692.75;5109950;28;20023;-84
2023/10/26 10:14:50;;;;;;;67.93;22.17;;;;;;;25.20;55.92;99698.22;5110098;28;20027;-83
2023/10/26 10:17:20;;;;;;;76.53;20.10;;;;;;;25.19;55.62;99688.28;5109905;28;20027;-83
2023/10/26 10:20:14;;;;;;;62.30;21.73;;;;;;;25.39;54.97;99685.97;5109774;28;20027;-84
2023/10/26 10:22:47;;;;;;;73.70;20.13;;;;;;;25.43;54.81;99670.63;5110230;28;20027;-83
2023/10/26 10:25:14;;;;;;;69.97;19.35;;;;;;;25.66;53.91;99669.72;5109568;28;20030;-83
2023/10/26 10:27:59;;;;;;;56.40;18.77;;;;;;;25.99;52.94;99676.16;5114581;28;20032;-82
2023/10/26 10:30:30;;;;;;;62.10;17.48;;;;;;;26.17;52.14;99655.00;5053005;28;20487;-81
2023/10/26 10:32:58;;;;;;;57.40;17.95;;;;;;;26.49;50.31;99664.34;5057471;28;20060;-84
2023/10/26 10:35:46;;;;;;;62.28;17.38;;;;;;;26.78;49.85;99637.50;5077211;28;20035;-82
2023/10/26 10:38:11;;;;;;;57.67;15.05;;;;;;;27.17;48.05;99644.69;5064364;28;20029;-82
2023/10/26 10:40:38;;;;;;;50.70;14.07;;;;;;;27.34;47.25;99637.16;5050855;28;20136;-84
2023/10/26 10:43:04;;;;;;;42.92;14.38;;;;;;;27.45;46.38;99616.06;5050571;28;20033;-83
2023/10/26 10:45:30;;;;;;;60.17;14.07;;;;;;;27.67;46.06;99622.38;5033783;28;20036;-84
2023/10/26 10:47:56;;;;;;;55.20;13.57;;;;;;;27.82;45.08;99630.84;5050640;28;20475;-85
2023/10/26 10:50:26;;;;;;;52.10;16.60;;;;;;;27.67;46.38;99630.69;5050416;28;20056;-83
2023/10/26 10:52:56;;;;;;;65.57;16.77;;;;;;;27.46;47.24;99626.84;5033632;28;20555;-83
2023/10/26 10:55:30;;;;;;;49.33;16.95;;;;;;;27.33;47.95;99627.22;5050036;28;20048;-82
2023/10/26 10:58:02;;;;;;;45.05;16.35;;;;;;;27.16;48.14;99614.56;5050493;28;20021;-83
2023/10/26 11:00:42;;;;;;;64.75;16.58;;;;;;;26.99;48.75;99615.47;5050181;28;20037;-82
2023/10/26 11:03:08;;;;;;;72.50;18.38;;;;;;;26.72;48.86;99609.00;5050124;28;20040;-82
2023/10/26 11:05:39;;;;;;;56.47;15.73;;;;;;;26.62;49.20;99636.44;5049838;28;20048;-82
2023/10/26 11:08:06;;;;;;;41.13;16.55;;;;;;;26.65;49.35;99624.06;5096615;28;20708;-82
2023/10/26 11:10:31;;;;;;;47.28;16.30;;;;;;;26.50;49.58;99616.41;5111472;28;20032;-83
2023/10/26 11:12:57;;;;;;;52.20;16.55;;;;;;;26.69;48.75;99630.75;5113106;28;20111;-82
2023/10/26 11:15:33;;;;;;;36.90;14.52;;;;;;;26.10;48.84;99544.06;5112833;28;20034;-83